Time;durP1;ratioP1;P1;durP2;ratioP2;P2;SDS_P1;SDS_P2;PMS_P1;PMS_P2;Temp;Humidity;BMP_temperature;BMP_pressure;BME280_temperature;BME280_humidity;BME280_pressure;Samples;Min_cycle;Max_cycle;Signal;HPM_P1;HPM_P2
2021/12/29 00:02:10;;;;;;;50.65;18.75;;;;;;;7.71;100.00;100041.16;5018921;28;20025;-48
2021/12/29 00:04:36;;;;;;;49.97;19.17;;;;;;;7.76;100.00;100046.00;5016397;28;20133;-45
2021/12/29 00:07:02;;;;;;;49.47;19.00;;;;;;;7.78;100.00;100051.97;5017589;28;20025;-45
2021/12/29 00:09:28;;;;;;;51.50;19.08;;;;;;;7.77;100.00;100060.91;5024444;28;20200;-46
2021/12/29 00:11:54;;;;;;;52.60;18.33;;;;;;;7.79;100.00;100067.75;5037391;28;20075;-46
2021/12/29 00:14:19;;;;;;;56.20;20.63;;;;;;;7.78;100.00;100081.22;5028648;28;20060;-47
2021/12/29 00:16:44;;;;;;;51.13;18.70;;;;;;;7.78;100.00;100084.69;5037598;28;20140;-46
2021/12/29 00:19:10;;;;;;;48.85;18.13;;;;;;;7.77;100.00;100099.00;5038410;28;20024;-47
2021/12/29 00:21:37;;;;;;;59.03;19.15;;;;;;;7.73;100.00;100099.47;5036712;28;20029;-47
2021/12/29 00:24:04;;;;;;;52.60;18.42;;;;;;;7.81;100.00;100112.78;5038859;28;20344;-49
2021/12/29 00:26:31;;;;;;;62.83;19.95;;;;;;;7.82;100.00;100114.44;5037154;28;20118;-49
2021/12/29 00:29:00;;;;;;;46.33;15.82;;;;;;;7.78;100.00;100116.59;5036870;28;20017;-50
2021/12/29 00:31:27;;;;;;;49.72;16.67;;;;;;;7.80;100.00;100119.91;5037864;28;20024;-46
2021/12/29 00:33:53;;;;;;;44.28;15.88;;;;;;;7.84;100.00;100117.75;5038355;28;20025;-48
2021/12/29 00:36:18;;;;;;;46.20;15.40;;;;;;;7.82;100.00;100125.91;5037562;28;20272;-47
2021/12/29 00:38:45;;;;;;;39.20;14.50;;;;;;;7.80;100.00;100130.53;5036935;28;20330;-48
2021/12/29 00:41:10;;;;;;;47.13;14.00;;;;;;;7.81;100.00;100139.38;5037744;28;20028;-45
2021/12/29 00:43:35;;;;;;;44.70;15.68;;;;;;;7.81;100.00;100148.16;5036557;28;20044;-46
2021/12/29 00:46:01;;;;;;;36.60;15.07;;;;;;;7.79;100.00;100150.16;5037080;28;20029;-47
2021/12/29 00:48:34;;;;;;;34.97;14.40;;;;;;;7.80;100.00;100154.47;5037819;28;20461;-49
2021/12/29 00:51:00;;;;;;;31.77;14.05;;;;;;;7.80;100.00;100156.28;5022121;28;20305;-47
2021/12/29 00:53:25;;;;;;;36.13;13.95;;;;;;;7.81;100.00;100158.81;5018112;28;20103;-47
2021/12/29 00:55:51;;;;;;;31.70;15.27;;;;;;;7.82;100.00;100164.94;5017341;28;20116;-46
2021/12/29 00:58:16;;;;;;;31.85;14.52;;;;;;;7.83;100.00;100170.09;5016870;28;20460;-49
2021/12/29 01:00:42;;;;;;;36.72;15.45;;;;;;;7.80;100.00;100162.44;5017364;28;20064;-48
2021/12/29 01:03:08;;;;;;;38.53;16.30;;;;;;;7.81;100.00;100172.09;5017987;28;20288;-45
2021/12/29 01:05:34;;;;;;;30.80;15.02;;;;;;;7.84;100.00;100190.38;5016608;28;20830;-46
2021/12/29 01:07:59;;;;;;;35.00;15.20;;;;;;;7.86;100.00;100187.56;5018071;28;20576;-45
2021/12/29 01:10:26;;;;;;;35.38;16.35;;;;;;;7.84;100.00;100195.69;5017037;28;20439;-44
2021/12/29 01:12:56;;;;;;;33.55;13.75;;;;;;;7.83;100.00;100196.69;5016127;28;20036;-47
2021/12/29 01:15:28;;;;;;;33.20;13.27;;;;;;;7.85;100.00;100200.00;5016890;28;20037;-46
2021/12/29 01:17:55;;;;;;;31.95;15.45;;;;;;;7.86;100.00;100203.53;5018289;28;20029;-44
2021/12/29 01:20:21;;;;;;;38.92;16.60;;;;;;;7.85;100.00;100217.78;5017132;28;20025;-43
2021/12/29 01:22:48;;;;;;;35.15;16.27;;;;;;;7.84;100.00;100224.09;5017038;28;20024;-44
2021/12/29 01:25:13;;;;;;;34.20;15.23;;;;;;;7.85;100.00;100237.22;5017359;28;20665;-44
2021/12/29 01:27:39;;;;;;;34.88;15.75;;;;;;;7.84;100.00;100237.38;5015888;28;20391;-45
2021/12/29 01:30:09;;;;;;;38.67;16.77;;;;;;;7.81;100.00;100241.22;5016617;28;20338;-44
2021/12/29 01:32:35;;;;;;;39.13;16.15;;;;;;;7.84;100.00;100258.66;5016277;28;20036;-45
2021/12/29 01:35:00;;;;;;;43.08;15.82;;;;;;;7.81;100.00;100259.81;5017935;28;20236;-45
2021/12/29 01:37:26;;;;;;;35.63;14.40;;;;;;;7.79;100.00;100255.63;5016986;28;20057;-46
2021/12/29 01:39:51;;;;;;;38.83;15.18;;;;;;;7.84;100.00;100266.63;5017439;28;20033;-47
2021/12/29 01:42:17;;;;;;;31.05;14.20;;;;;;;7.85;100.00;100274.44;5020395;28;20502;-44
2021/12/29 01:44:42;;;;;;;37.58;13.60;;;;;;;7.85;100.00;100279.75;5020978;28;20033;-47
2021/12/29 01:47:07;;;;;;;32.97;13.90;;;;;;;7.87;100.00;100278.78;5021189;28;20018;-44
2021/12/29 01:49:33;;;;;;;32.58;14.93;;;;;;;7.84;100.00;100274.59;5020621;28;20047;-47
2021/12/29 01:52:12;;;;;;;36.17;14.38;;;;;;;7.82;100.00;100277.44;5020232;28;20029;-46
2021/12/29 01:54:38;;;;;;;37.33;14.95;;;;;;;7.80;100.00;100287.38;5020965;28;20033;-48
2021/12/29 01:57:10;;;;;;;32.60;13.73;;;;;;;7.80;100.00;100282.06;5020486;28;20111;-46
2021/12/29 01:59:35;;;;;;;39.33;14.85;;;;;;;7.79;100.00;100288.38;5020309;28;20231;-44
2021/12/29 02:02:01;;;;;;;33.58;14.95;;;;;;;7.84;100.00;100290.56;5021087;28;20158;-46
2021/12/29 02:04:27;;;;;;;31.42;13.98;;;;;;;7.80;100.00;100287.38;5021454;28;20076;-45
2021/12/29 02:06:52;;;;;;;29.40;13.93;;;;;;;7.82;100.00;100296.06;5020180;28;20489;-49
2021/12/29 02:09:18;;;;;;;31.58;13.85;;;;;;;7.81;100.00;100298.88;5020435;28;20080;-47
2021/12/29 02:11:44;;;;;;;30.88;14.80;;;;;;;7.83;100.00;100308.34;5019270;28;20389;-44
2021/12/29 02:14:10;;;;;;;28.80;13.02;;;;;;;7.82;100.00;100313.81;5020641;28;20393;-45
2021/12/29 02:16:36;;;;;;;40.00;15.07;;;;;;;7.81;100.00;100312.16;5019932;28;20263;-46
2021/12/29 02:19:06;;;;;;;33.00;15.32;;;;;;;7.81;100.00;100326.28;5021069;28;20033;-50
2021/12/29 02:21:32;;;;;;;36.17;15.32;;;;;;;7.79;100.00;100322.09;5019711;28;20055;-48
2021/12/29 02:26:27;;;;;;;43.85;16.70;;;;;;;7.81;100.00;100325.44;5020206;28;20128;-46
2021/12/29 02:28:55;;;;;;;38.00;17.08;;;;;;;7.80;100.00;100326.44;5020115;28;20025;-46
2021/12/29 02:31:21;;;;;;;47.20;17.55;;;;;;;7.81;100.00;100333.44;5019669;28;20029;-48
2021/12/29 02:33:46;;;;;;;44.15;19.30;;;;;;;7.80;100.00;100332.56;5019151;28;20028;-50
2021/12/29 02:36:11;;;;;;;42.47;17.92;;;;;;;7.80;100.00;100332.56;5019551;28;20048;-49
2021/12/29 02:38:45;;;;;;;50.00;21.30;;;;;;;7.80;100.00;100345.03;5019473;28;20057;-47
2021/12/29 02:41:10;;;;;;;49.60;18.92;;;;;;;7.81;100.00;100346.72;5020025;28;20076;-45
2021/12/29 02:43:40;;;;;;;47.40;19.75;;;;;;;7.79;100.00;100344.22;5017688;28;20056;-44
2021/12/29 02:46:13;;;;;;;42.95;18.60;;;;;;;7.77;100.00;100354.19;5019118;28;20068;-47
2021/12/29 02:49:05;;;;;;;48.55;17.90;;;;;;;7.75;100.00;100347.31;5020035;28;20026;-45
2021/12/29 02:51:33;;;;;;;50.28;18.23;;;;;;;7.72;100.00;100337.00;5018734;28;20061;-48
2021/12/29 02:53:59;;;;;;;44.15;17.88;;;;;;;7.73;100.00;100350.13;5020293;28;20018;-48
2021/12/29 02:56:26;;;;;;;50.13;20.52;;;;;;;7.71;100.00;100352.13;5019067;28;20128;-47
2021/12/29 02:58:52;;;;;;;47.03;18.67;;;;;;;7.69;100.00;100342.63;5017587;28;20108;-44
2021/12/29 03:01:18;;;;;;;43.92;20.08;;;;;;;7.68;100.00;100344.44;5019305;28;20039;-46
2021/12/29 03:03:43;;;;;;;52.97;21.10;;;;;;;7.68;100.00;100356.91;5019632;28;20079;-46
2021/12/29 03:06:10;;;;;;;53.95;19.90;;;;;;;7.66;100.00;100368.53;5019772;28;20116;-46
2021/12/29 03:08:36;;;;;;;47.60;19.75;;;;;;;7.62;100.00;100383.13;5019149;28;20429;-46
2021/12/29 03:11:02;;;;;;;50.60;22.13;;;;;;;7.62;100.00;100387.59;5019203;28;20102;-46
2021/12/29 03:13:32;;;;;;;49.75;21.67;;;;;;;7.60;100.00;100379.78;5016892;28;20093;-47
2021/12/29 03:15:58;;;;;;;59.17;22.17;;;;;;;7.60;100.00;100384.25;5019032;28;20108;-44
2021/12/29 03:18:23;;;;;;;56.63;24.20;;;;;;;7.58;100.00;100389.72;5019148;28;20132;-48
2021/12/29 03:20:49;;;;;;;61.95;24.70;;;;;;;7.56;100.00;100401.50;5019058;28;20023;-46
2021/12/29 03:23:16;;;;;;;67.30;23.70;;;;;;;7.57;100.00;100393.38;5019083;28;20021;-43
2021/12/29 03:25:42;;;;;;;74.55;25.58;;;;;;;7.57;100.00;100406.66;5019120;28;20111;-46
2021/12/29 03:28:08;;;;;;;85.18;27.77;;;;;;;7.56;100.00;100407.63;5018236;28;20350;-45
2021/12/29 03:30:36;;;;;;;75.78;29.23;;;;;;;7.57;100.00;100411.13;5018071;28;20149;-44
2021/12/29 03:33:03;;;;;;;77.15;30.00;;;;;;;7.57;100.00;100419.09;5019347;28;20021;-49
2021/12/29 03:35:35;;;;;;;69.05;26.35;;;;;;;7.56;100.00;100417.44;5018505;28;20026;-44
2021/12/29 03:38:02;;;;;;;78.78;27.58;;;;;;;7.55;100.00;100421.06;5018232;28;20057;-46
2021/12/29 03:40:28;;;;;;;83.07;28.15;;;;;;;7.56;100.00;100422.75;5018756;28;20029;-45
2021/12/29 03:42:54;;;;;;;83.45;26.45;;;;;;;7.56;100.00;100420.09;5018585;28;20099;-44
2021/12/29 03:45:19;;;;;;;73.95;25.92;;;;;;;7.55;100.00;100421.06;5018596;28;20039;-44
2021/12/29 03:47:45;;;;;;;72.78;26.92;;;;;;;7.56;100.00;100428.91;5018765;28;20022;-49
2021/12/29 03:50:11;;;;;;;87.38;30.27;;;;;;;7.55;100.00;100432.56;5019392;28;20076;-47
2021/12/29 03:52:36;;;;;;;80.85;30.10;;;;;;;7.54;100.00;100444.16;5018188;28;20366;-47
2021/12/29 03:55:02;;;;;;;92.15;33.67;;;;;;;7.56;100.00;100454.66;5018801;28;20132;-45
2021/12/29 03:57:27;;;;;;;88.47;31.13;;;;;;;7.54;100.00;100448.66;5017993;28;20033;-46
2021/12/29 03:59:52;;;;;;;81.88;28.55;;;;;;;7.54;100.00;100454.78;5017989;28;20434;-43
2021/12/29 04:02:18;;;;;;;88.60;28.95;;;;;;;7.54;100.00;100453.97;5017096;28;20029;-45
2021/12/29 04:04:43;;;;;;;89.88;29.50;;;;;;;7.54;100.00;100459.28;5018325;28;20041;-49
2021/12/29 04:07:08;;;;;;;76.78;27.35;;;;;;;7.53;100.00;100450.47;5018116;28;20048;-44
2021/12/29 04:09:34;;;;;;;91.57;27.98;;;;;;;7.51;100.00;100452.44;5018056;28;20029;-45
2021/12/29 04:11:59;;;;;;;82.78;28.52;;;;;;;7.49;100.00;100454.41;5016338;28;20135;-46
2021/12/29 04:14:26;;;;;;;96.57;32.08;;;;;;;7.50;100.00;100461.38;5018631;28;20087;-44
2021/12/29 04:16:53;;;;;;;84.47;31.08;;;;;;;7.49;100.00;100466.88;5017448;28;20095;-45
2021/12/29 04:19:29;;;;;;;88.93;29.48;;;;;;;7.47;100.00;100465.19;5018456;28;20036;-47
2021/12/29 04:21:57;;;;;;;83.35;27.25;;;;;;;7.49;100.00;100470.34;5017395;28;20501;-46
2021/12/29 04:24:24;;;;;;;75.20;27.35;;;;;;;7.46;100.00;100466.16;5018505;28;20441;-46
2021/12/29 04:26:49;;;;;;;94.35;29.27;;;;;;;7.47;100.00;100475.00;5016820;28;20029;-45
2021/12/29 04:29:15;;;;;;;85.10;28.88;;;;;;;7.47;100.00;100467.84;5018313;28;20454;-45
2021/12/29 04:31:41;;;;;;;83.57;29.20;;;;;;;7.45;100.00;100463.66;5017108;28;20025;-47
2021/12/29 04:34:07;;;;;;;84.05;27.73;;;;;;;7.45;100.00;100468.97;5018097;28;20097;-47
2021/12/29 04:36:33;;;;;;;84.40;27.15;;;;;;;7.44;100.00;100483.25;5016679;28;20441;-44
2021/12/29 04:39:00;;;;;;;93.85;27.23;;;;;;;7.44;100.00;100488.56;5018197;28;20061;-45
2021/12/29 04:41:27;;;;;;;96.65;27.67;;;;;;;7.43;100.00;100485.09;5016247;28;20075;-44
2021/12/29 04:43:53;;;;;;;79.32;25.42;;;;;;;7.44;100.00;100492.06;5018219;28;20417;-48
2021/12/29 04:46:27;;;;;;;88.38;30.13;;;;;;;7.44;100.00;100508.00;5015841;28;20502;-48
2021/12/29 04:48:59;;;;;;;94.32;28.50;;;;;;;7.43;100.00;100503.69;5018239;28;20078;-48
2021/12/29 04:51:33;;;;;;;93.07;28.38;;;;;;;7.44;100.00;100515.97;5017427;28;20044;-46
2021/12/29 04:53:58;;;;;;;91.30;28.88;;;;;;;7.42;100.00;100512.63;5017449;28;20147;-44
2021/12/29 04:56:24;;;;;;;97.05;30.55;;;;;;;7.43;100.00;100518.78;5016675;28;20022;-47
2021/12/29 04:58:49;;;;;;;95.68;28.73;;;;;;;7.44;100.00;100523.09;5017239;28;20108;-47
2021/12/29 05:01:15;;;;;;;94.05;30.05;;;;;;;7.43;100.00;100526.75;5016915;28;20121;-46
2021/12/29 05:03:43;;;;;;;84.63;28.55;;;;;;;7.44;100.00;100531.09;5017194;28;20025;-46
2021/12/29 05:08:34;;;;;;;97.75;31.17;;;;;;;7.42;100.00;100527.75;5016906;28;20033;-46
2021/12/29 05:11:05;;;;;;;83.82;29.88;;;;;;;7.44;100.00;100531.09;5016623;28;20529;-45
2021/12/29 05:13:35;;;;;;;83.45;28.73;;;;;;;7.44;100.00;100523.09;5016906;28;20994;-45
2021/12/29 05:16:01;;;;;;;87.72;29.35;;;;;;;7.45;100.00;100530.06;5016576;28;20100;-44
2021/12/29 05:18:29;;;;;;;85.00;29.70;;;;;;;7.44;100.00;100531.09;5017414;28;20123;-46
2021/12/29 05:20:56;;;;;;;78.50;26.33;;;;;;;7.44;100.00;100526.59;5017500;28;20089;-47
2021/12/29 05:23:22;;;;;;;79.75;25.75;;;;;;;7.43;100.00;100534.72;5017235;28;20090;-48
2021/12/29 05:25:49;;;;;;;79.60;26.92;;;;;;;7.44;100.00;100528.44;5016542;28;20107;-46
2021/12/29 05:28:14;;;;;;;93.65;30.23;;;;;;;7.44;100.00;100531.91;5017229;28;20026;-44
2021/12/29 05:30:40;;;;;;;65.63;24.67;;;;;;;7.42;100.00;100538.38;5016354;28;20236;-45
2021/12/29 05:33:06;;;;;;;73.68;28.05;;;;;;;7.42;100.00;100539.19;5017725;28;20029;-45
2021/12/29 05:35:31;;;;;;;67.13;25.77;;;;;;;7.39;100.00;100534.19;5017123;28;20385;-49
2021/12/29 05:37:57;;;;;;;87.80;30.23;;;;;;;7.42;100.00;100539.19;5016343;28;20041;-46
2021/12/29 05:40:23;;;;;;;75.38;24.85;;;;;;;7.42;100.00;100547.16;5017174;28;20063;-46
2021/12/29 05:42:49;;;;;;;74.30;25.15;;;;;;;7.43;100.00;100546.19;5014842;28;20045;-46
2021/12/29 05:45:15;;;;;;;77.63;27.65;;;;;;;7.44;100.00;100545.19;5016718;28;20477;-47
2021/12/29 05:47:41;;;;;;;76.80;27.40;;;;;;;7.43;100.00;100546.19;5016712;28;20214;-49
2021/12/29 05:50:09;;;;;;;72.78;26.48;;;;;;;7.44;100.00;100544.38;5017890;28;20307;-48
2021/12/29 05:52:35;;;;;;;74.03;28.05;;;;;;;7.43;100.00;100542.69;5015905;28;20494;-47
2021/12/29 05:55:00;;;;;;;78.53;28.20;;;;;;;7.44;100.00;100545.19;5017358;28;20064;-48
2021/12/29 05:57:26;;;;;;;82.20;28.90;;;;;;;7.44;100.00;100545.19;5016602;28;20053;-45
2021/12/29 05:59:51;;;;;;;74.95;24.98;;;;;;;7.45;100.00;100552.19;5016121;28;20025;-45
2021/12/29 06:02:17;;;;;;;77.97;25.92;;;;;;;7.45;100.00;100549.53;5016724;28;20026;-48
2021/12/29 06:04:42;;;;;;;69.65;25.77;;;;;;;7.45;100.00;100549.53;5016889;28;20450;-45
2021/12/29 06:07:07;;;;;;;81.10;25.70;;;;;;;7.47;100.00;100554.69;5016641;28;20141;-48
2021/12/29 06:09:33;;;;;;;75.65;24.70;;;;;;;7.43;100.00;100548.84;5016705;28;20032;-44
2021/12/29 06:11:58;;;;;;;70.20;26.55;;;;;;;7.46;100.00;100561.81;5015865;28;20014;-46
2021/12/29 06:14:23;;;;;;;73.63;24.67;;;;;;;7.47;100.00;100566.16;5016940;28;20469;-46
2021/12/29 06:16:49;;;;;;;76.38;24.20;;;;;;;7.47;100.00;100573.31;5015745;28;20508;-46
2021/12/29 06:19:14;;;;;;;65.63;21.75;;;;;;;7.47;100.00;100579.44;5017127;28;20045;-44
2021/12/29 06:21:40;;;;;;;68.80;23.63;;;;;;;7.45;100.00;100578.75;5015823;28;20025;-44
2021/12/29 06:24:06;;;;;;;66.55;22.60;;;;;;;7.44;100.00;100582.38;5015069;28;20017;-44
2021/12/29 06:26:32;;;;;;;72.47;23.95;;;;;;;7.44;100.00;100598.34;5016516;28;20127;-49
2021/12/29 06:28:57;;;;;;;72.80;24.60;;;;;;;7.43;100.00;100598.47;5020839;28;20489;-45
2021/12/29 06:31:23;;;;;;;81.88;23.50;;;;;;;7.44;100.00;100602.81;5019744;28;20095;-45
2021/12/29 06:33:48;;;;;;;78.88;22.90;;;;;;;7.45;100.00;100599.16;5019711;28;20030;-46
2021/12/29 06:36:13;;;;;;;62.20;22.45;;;;;;;7.44;100.00;100601.00;5018295;28;20021;-49
2021/12/29 06:38:39;;;;;;;69.10;24.77;;;;;;;7.44;100.00;100600.16;5019390;28;20067;-46
2021/12/29 06:41:04;;;;;;;62.45;22.20;;;;;;;7.42;100.00;100600.31;5019480;28;20029;-46
2021/12/29 06:43:29;;;;;;;71.45;22.45;;;;;;;7.42;100.00;100604.78;5020063;28;20537;-46
2021/12/29 06:45:55;;;;;;;62.67;21.58;;;;;;;7.37;100.00;100597.25;5019787;28;20036;-46
2021/12/29 06:48:20;;;;;;;59.55;21.15;;;;;;;7.40;100.00;100599.63;5020063;28;20017;-47
2021/12/29 06:50:45;;;;;;;60.17;21.92;;;;;;;7.40;100.00;100606.72;5024388;28;20073;-48
2021/12/29 06:53:11;;;;;;;66.35;22.35;;;;;;;7.38;100.00;100606.91;5039616;28;20029;-47
2021/12/29 06:55:36;;;;;;;59.08;21.20;;;;;;;7.39;100.00;100607.75;5038323;28;20025;-45
2021/12/29 06:58:02;;;;;;;63.63;20.90;;;;;;;7.38;100.00;100616.69;5039865;28;20360;-47
2021/12/29 07:00:27;;;;;;;59.65;20.65;;;;;;;7.37;100.00;100618.50;5039282;28;20098;-46
2021/12/29 07:02:53;;;;;;;71.78;20.60;;;;;;;7.35;100.00;100620.47;5038300;28;20112;-46
2021/12/29 07:05:18;;;;;;;68.85;21.20;;;;;;;7.36;100.00;100616.00;5039349;28;20056;-49
2021/12/29 07:07:46;;;;;;;55.33;18.92;;;;;;;7.36;100.00;100616.00;5039277;28;20499;-49
2021/12/29 07:10:11;;;;;;;56.47;21.60;;;;;;;7.33;100.00;100625.09;5038760;28;20036;-45
2021/12/29 07:12:36;;;;;;;65.25;20.42;;;;;;;7.33;100.00;100632.22;5036179;28;20110;-48
2021/12/29 07:15:02;;;;;;;65.90;21.02;;;;;;;7.32;100.00;100634.03;5039393;28;20055;-45
2021/12/29 07:17:27;;;;;;;54.55;18.95;;;;;;;7.32;100.00;100641.19;5039330;28;20025;-45
2021/12/29 07:19:53;;;;;;;51.17;19.90;;;;;;;7.31;100.00;100655.44;5038151;28;20028;-44
2021/12/29 07:22:18;;;;;;;52.17;19.65;;;;;;;7.29;100.00;100653.75;5039331;28;20025;-45
2021/12/29 07:24:43;;;;;;;52.97;19.77;;;;;;;7.28;100.00;100651.25;5039030;28;20029;-44
2021/12/29 07:27:09;;;;;;;49.47;18.35;;;;;;;7.27;100.00;100654.91;5018550;28;20119;-44
2021/12/29 07:29:34;;;;;;;51.03;18.75;;;;;;;7.27;100.00;100658.38;5017656;28;20029;-46
2021/12/29 07:32:02;;;;;;;54.00;19.08;;;;;;;7.26;100.00;100674.47;5019206;28;20033;-45
2021/12/29 07:34:28;;;;;;;53.90;18.35;;;;;;;7.26;100.00;100677.13;5018114;28;20025;-44
2021/12/29 07:36:54;;;;;;;57.00;19.35;;;;;;;7.25;100.00;100676.28;5018444;28;20590;-47
2021/12/29 07:39:20;;;;;;;50.55;19.60;;;;;;;7.24;100.00;100671.94;5018246;28;20127;-47
2021/12/29 07:41:46;;;;;;;53.60;19.25;;;;;;;7.22;100.00;100679.22;5017857;28;20074;-47
2021/12/29 07:44:13;;;;;;;61.17;18.65;;;;;;;7.22;100.00;100681.88;5019281;28;20105;-45
2021/12/29 07:46:39;;;;;;;49.45;17.92;;;;;;;7.20;100.00;100678.53;5018062;28;20025;-47
2021/12/29 07:49:04;;;;;;;53.35;18.38;;;;;;;7.21;100.00;100677.56;5019055;28;20288;-48
2021/12/29 07:51:30;;;;;;;52.97;18.25;;;;;;;7.22;100.00;100670.44;5018762;28;20029;-47
2021/12/29 07:53:56;;;;;;;57.78;19.05;;;;;;;7.21;100.00;100674.06;5028098;28;20124;-46
2021/12/29 07:56:22;;;;;;;53.45;18.50;;;;;;;7.19;100.00;100676.84;5032994;28;20032;-45
2021/12/29 07:58:48;;;;;;;57.33;18.63;;;;;;;7.18;100.00;100677.00;5037424;28;20025;-47
2021/12/29 08:01:13;;;;;;;51.47;18.33;;;;;;;7.18;100.00;100671.69;5037601;28;20017;-44
2021/12/29 08:03:41;;;;;;;50.13;18.58;;;;;;;7.19;100.00;100663.56;5038092;28;20187;-46
2021/12/29 08:06:07;;;;;;;60.35;18.00;;;;;;;7.20;100.00;100669.75;5037790;28;20079;-46
2021/12/29 08:08:33;;;;;;;46.90;17.35;;;;;;;7.19;100.00;100670.72;5037174;28;20477;-46
2021/12/29 08:10:58;;;;;;;49.58;17.95;;;;;;;7.19;100.00;100665.41;5036984;28;20036;-48
2021/12/29 08:13:23;;;;;;;48.60;17.83;;;;;;;7.21;100.00;100674.91;5038148;28;20484;-49
2021/12/29 08:15:49;;;;;;;48.25;17.08;;;;;;;7.23;100.00;100680.06;5028461;28;20033;-45
2021/12/29 08:18:14;;;;;;;41.10;16.02;;;;;;;7.21;100.00;100682.88;5018213;28;20051;-45
2021/12/29 08:20:40;;;;;;;43.78;15.05;;;;;;;7.21;100.00;100676.72;5023555;28;20452;-47
2021/12/29 08:23:06;;;;;;;39.40;14.00;;;;;;;7.24;100.00;100673.78;5027920;28;20467;-45
2021/12/29 08:25:33;;;;;;;35.55;14.30;;;;;;;7.24;100.00;100674.59;5025543;28;20029;-46
2021/12/29 08:27:58;;;;;;;35.17;13.98;;;;;;;7.26;100.00;100687.75;5028377;28;20021;-46
2021/12/29 08:30:25;;;;;;;39.90;13.85;;;;;;;7.26;100.00;100679.78;5028410;28;20458;-45
2021/12/29 08:32:50;;;;;;;32.85;13.15;;;;;;;7.24;100.00;100674.59;5026271;28;20523;-48
2021/12/29 08:35:16;;;;;;;33.45;14.20;;;;;;;7.27;100.00;100682.28;5028076;28;20029;-44
2021/12/29 08:37:42;;;;;;;36.58;12.50;;;;;;;7.29;100.00;100676.84;5027202;28;20052;-46
2021/12/29 08:40:09;;;;;;;41.53;14.68;;;;;;;7.28;100.00;100680.47;5021249;28;20108;-47
2021/12/29 08:42:35;;;;;;;54.10;15.70;;;;;;;7.31;100.00;100677.53;5020127;28;20500;-44
2021/12/29 08:45:03;;;;;;;43.38;14.95;;;;;;;7.32;100.00;100681.88;5027578;28;20044;-45
2021/12/29 08:47:28;;;;;;;42.75;15.05;;;;;;;7.36;100.00;100687.72;5028335;28;20513;-48
2021/12/29 08:49:53;;;;;;;36.53;14.20;;;;;;;7.38;100.00;100696.38;5025381;28;20595;-48
2021/12/29 08:52:19;;;;;;;39.17;14.63;;;;;;;7.40;100.00;100699.72;5027665;28;20025;-49
2021/12/29 08:54:44;;;;;;;34.78;14.63;;;;;;;7.41;100.00;100690.78;5020212;28;20402;-48
2021/12/29 08:57:10;;;;;;;48.13;15.10;;;;;;;7.41;100.00;100688.97;5022587;28;20491;-45
2021/12/29 08:59:35;;;;;;;38.85;15.38;;;;;;;7.45;100.00;100685.03;5031602;28;20531;-44
2021/12/29 09:02:00;;;;;;;39.75;15.80;;;;;;;7.48;100.00;100691.88;5037431;28;20021;-47
2021/12/29 09:04:25;;;;;;;38.50;15.32;;;;;;;7.51;100.00;100698.72;5030943;28;20020;-45
2021/12/29 09:06:52;;;;;;;42.00;15.05;;;;;;;7.54;100.00;100701.09;5027777;28;20178;-46
2021/12/29 09:09:18;;;;;;;47.47;15.60;;;;;;;7.54;100.00;100696.63;5026723;28;20618;-48
2021/12/29 09:11:44;;;;;;;36.60;15.23;;;;;;;7.55;100.00;100682.38;5025395;28;20031;-46
2021/12/29 09:14:09;;;;;;;40.17;16.48;;;;;;;7.57;100.00;100692.81;5028475;28;20456;-45
2021/12/29 09:16:34;;;;;;;35.90;16.17;;;;;;;7.59;100.00;100690.88;5024858;28;20033;-47
2021/12/29 09:19:00;;;;;;;35.75;15.80;;;;;;;7.60;100.00;100690.72;5027495;28;20020;-47
2021/12/29 09:21:27;;;;;;;43.70;18.05;;;;;;;7.63;100.00;100689.59;5025634;28;20604;-48
2021/12/29 09:23:52;;;;;;;51.65;18.35;;;;;;;7.64;100.00;100678.00;5026302;28;20658;-45
2021/12/29 09:26:18;;;;;;;41.83;17.80;;;;;;;7.68;100.00;100671.38;5026091;28;20021;-45
2021/12/29 09:28:46;;;;;;;44.17;18.55;;;;;;;7.69;100.00;100665.09;5027139;28;20047;-46
2021/12/29 09:31:14;;;;;;;45.28;18.77;;;;;;;7.68;100.00;100671.38;5024637;28;20022;-47
2021/12/29 09:33:40;;;;;;;40.03;17.92;;;;;;;7.67;100.00;100669.69;5024538;28;20029;-48
2021/12/29 09:36:05;;;;;;;34.03;17.00;;;;;;;7.66;100.00;100668.03;5024637;28;20032;-49
2021/12/29 09:38:34;;;;;;;42.28;19.13;;;;;;;7.65;100.00;100674.31;5023469;28;20049;-45
2021/12/29 09:41:00;;;;;;;47.80;18.35;;;;;;;7.63;100.00;100671.81;5025146;28;20020;-47
2021/12/29 09:43:26;;;;;;;44.05;19.23;;;;;;;7.62;100.00;100672.81;5026789;28;20033;-47
2021/12/29 09:45:51;;;;;;;44.33;19.00;;;;;;;7.64;100.00;100676.16;5021888;28;20034;-47
2021/12/29 09:48:17;;;;;;;45.03;18.40;;;;;;;7.66;100.00;100673.34;5031998;28;20024;-49
2021/12/29 09:50:44;;;;;;;39.45;17.17;;;;;;;7.69;100.00;100666.91;5024719;28;20146;-47
2021/12/29 09:53:10;;;;;;;42.22;18.00;;;;;;;7.72;100.00;100662.16;5016560;28;20116;-46
2021/12/29 09:55:37;;;;;;;42.97;18.17;;;;;;;7.76;100.00;100665.34;5028285;28;20409;-46
2021/12/29 09:58:04;;;;;;;37.13;16.77;;;;;;;7.79;100.00;100667.69;5026167;28;20466;-45
2021/12/29 10:00:31;;;;;;;37.30;17.08;;;;;;;7.82;100.00;100667.41;5019808;28;20033;-45
2021/12/29 10:02:58;;;;;;;33.33;16.42;;;;;;;7.87;100.00;100666.97;5026198;28;20588;-45
2021/12/29 10:05:27;;;;;;;40.85;17.42;;;;;;;7.90;100.00;100664.00;5031863;28;20075;-49
2021/12/29 10:08:25;;;;;;;35.63;17.33;;;;;;;7.97;100.00;100673.06;5037661;28;20055;-48
2021/12/29 10:10:53;;;;;;;41.50;16.17;;;;;;;8.05;100.00;100669.69;5020566;28;20092;-48
2021/12/29 10:13:19;;;;;;;33.47;15.23;;;;;;;8.12;100.00;100682.22;5023429;28;20044;-46
2021/12/29 10:15:52;;;;;;;32.08;15.10;;;;;;;8.20;100.00;100678.81;5019010;28;20025;-48
2021/12/29 10:18:24;;;;;;;38.30;14.80;;;;;;;8.21;100.00;100673.34;5021018;28;20370;-49
2021/12/29 10:20:53;;;;;;;34.33;15.32;;;;;;;8.22;100.00;100666.19;5021060;28;20140;-48
2021/12/29 10:23:24;;;;;;;38.17;15.07;;;;;;;8.23;100.00;100667.84;5021084;28;20014;-45
2021/12/29 10:25:52;;;;;;;31.08;14.50;;;;;;;8.19;100.00;100656.69;5028884;28;20067;-46
2021/12/29 10:28:29;;;;;;;35.85;15.18;;;;;;;8.16;100.00;100649.03;5029348;28;20022;-45
2021/12/29 10:31:04;;;;;;;37.95;15.70;;;;;;;8.19;100.00;100638.06;5029896;28;20053;-47
2021/12/29 10:33:34;;;;;;;35.03;14.65;;;;;;;8.19;100.00;100626.59;5029689;28;20032;-49
2021/12/29 10:36:14;;;;;;;36.53;14.57;;;;;;;8.21;100.00;100630.78;5040645;28;20071;-47
2021/12/29 10:38:41;;;;;;;39.83;15.52;;;;;;;8.25;100.00;100630.47;5039794;28;20049;-46
2021/12/29 10:41:07;;;;;;;38.13;15.70;;;;;;;8.27;100.00;100634.66;5039850;28;20094;-47
2021/12/29 10:43:33;;;;;;;34.80;14.38;;;;;;;8.29;100.00;100637.16;5034072;28;20053;-45
2021/12/29 10:45:59;;;;;;;38.83;16.05;;;;;;;8.35;100.00;100636.53;5020580;28;20449;-47
2021/12/29 10:48:30;;;;;;;36.00;14.15;;;;;;;8.37;100.00;100634.59;5025354;28;20087;-45
2021/12/29 10:51:00;;;;;;;40.78;14.35;;;;;;;8.37;100.00;100626.59;5020109;28;20452;-48
2021/12/29 10:53:25;;;;;;;32.40;13.77;;;;;;;8.38;100.00;100625.59;5020257;28;20218;-49
2021/12/29 10:55:51;;;;;;;35.45;14.18;;;;;;;8.30;100.00;100629.03;5017840;28;20423;-49
2021/12/29 10:58:19;;;;;;;39.10;13.98;;;;;;;8.27;100.00;100633.84;5020262;28;20087;-49
2021/12/29 11:01:07;;;;;;;31.42;14.10;;;;;;;8.25;100.00;100646.44;5019917;28;20021;-48
2021/12/29 11:03:34;;;;;;;31.10;12.95;;;;;;;8.25;100.00;100657.94;5020089;28;20029;-46
2021/12/29 11:06:02;;;;;;;34.83;13.43;;;;;;;8.25;100.00;100663.25;5019433;28;20437;-47
2021/12/29 11:08:52;;;;;;;36.72;12.25;;;;;;;8.22;100.00;100659.03;5019405;28;20033;-45
2021/12/29 11:11:45;;;;;;;38.08;11.65;;;;;;;8.21;100.00;100654.72;5018637;28;20095;-47
2021/12/29 11:14:13;;;;;;;33.45;11.85;;;;;;;8.21;100.00;100653.88;5020067;28;20417;-47